Time;durP1;ratioP1;P1;durP2;ratioP2;P2;SDS_P1;SDS_P2;PMS_P1;PMS_P2;Temp;Humidity;BMP_temperature;BMP_pressure;BME280_temperature;BME280_humidity;BME280_pressure;Samples;Min_cycle;Max_cycle;Signal;HPM_P1;HPM_P2
2022/06/13 00:01:21;;;;;;;3.92;2.35;;;21.30;54.50;;;;;;5051298;28;20171;-72
2022/06/13 00:03:46;;;;;;;3.10;2.30;;;21.30;54.40;;;;;;5050213;28;20230;-72
2022/06/13 00:06:12;;;;;;;2.53;1.80;;;21.20;54.40;;;;;;5051311;28;20713;-72
2022/06/13 00:08:37;;;;;;;3.33;2.08;;;21.30;54.50;;;;;;5051280;28;20715;-74
2022/06/13 00:11:05;;;;;;;2.55;2.10;;;21.30;54.60;;;;;;5050448;28;20174;-72
2022/06/13 00:13:31;;;;;;;2.55;2.00;;;21.30;54.60;;;;;;5051290;28;20187;-73
2022/06/13 00:15:56;;;;;;;2.67;2.13;;;21.30;54.60;;;;;;5051086;28;20543;-73
2022/06/13 00:18:22;;;;;;;3.45;2.20;;;21.20;54.60;;;;;;5050461;28;20198;-73
2022/06/13 00:20:47;;;;;;;2.15;1.95;;;21.30;54.60;;;;;;5050826;28;20171;-73
2022/06/13 00:23:13;;;;;;;2.42;2.08;;;21.20;54.60;;;;;;5054243;28;20183;-72
2022/06/13 00:25:38;;;;;;;2.22;1.95;;;21.20;54.60;;;;;;5054130;28;20179;-73
2022/06/13 00:28:04;;;;;;;2.88;1.90;;;21.20;54.70;;;;;;5053554;28;20195;-73
2022/06/13 00:30:29;;;;;;;2.30;1.90;;;21.20;54.70;;;;;;5054712;28;20183;-73
2022/06/13 00:32:56;;;;;;;3.10;2.17;;;21.20;54.70;;;;;;5053857;28;20174;-72
2022/06/13 00:35:21;;;;;;;3.00;2.03;;;21.20;54.70;;;;;;5054759;28;20665;-73
2022/06/13 00:37:47;;;;;;;1.90;1.75;;;21.20;54.80;;;;;;5054598;28;20183;-73
2022/06/13 00:40:13;;;;;;;2.75;2.05;;;21.20;54.80;;;;;;5054123;28;20210;-73
2022/06/13 00:42:38;;;;;;;2.95;2.17;;;21.20;54.80;;;;;;5054452;28;20175;-73
2022/06/13 00:45:13;;;;;;;3.10;2.10;;;21.10;54.80;;;;;;5054626;28;20179;-73
2022/06/13 00:47:40;;;;;;;2.13;1.80;;;21.10;54.80;;;;;;5053720;28;20203;-73
2022/06/13 00:50:07;;;;;;;2.40;2.17;;;21.10;54.80;;;;;;5054499;28;20500;-73
2022/06/13 00:52:55;;;;;;;4.10;2.10;;;21.10;54.80;;;;;;5053613;28;20176;-73
2022/06/13 00:55:25;;;;;;;3.40;2.10;;;21.10;54.90;;;;;;5053082;28;20190;-73
2022/06/13 00:57:50;;;;;;;2.58;1.75;;;21.10;54.80;;;;;;5052866;28;20206;-72
2022/06/13 01:00:16;;;;;;;2.58;2.15;;;21.10;55.10;;;;;;5052319;28;20214;-71
2022/06/13 01:02:44;;;;;;;2.72;2.22;;;21.10;55.00;;;;;;5053975;28;20215;-71
2022/06/13 01:05:09;;;;;;;2.50;2.13;;;21.10;55.00;;;;;;5053118;28;20285;-72
2022/06/13 01:07:35;;;;;;;2.35;1.73;;;21.10;55.00;;;;;;5053191;28;20211;-73
2022/06/13 01:12:46;;;;;;;2.33;2.05;;;21.10;55.00;;;;;;5054046;28;20185;-73
2022/06/13 01:15:43;;;;;;;2.22;1.90;;;21.10;55.00;;;;;;5052005;28;20527;-73
2022/06/13 01:18:27;;;;;;;2.20;2.00;;;21.00;55.00;;;;;;5054195;28;20206;-73
2022/06/13 01:20:54;;;;;;;2.58;2.00;;;21.00;55.10;;;;;;5052647;28;20233;-73
2022/06/13 01:23:52;;;;;;;2.65;2.13;;;21.00;55.10;;;;;;5053223;28;20176;-73
2022/06/13 01:26:41;;;;;;;1.88;1.75;;;21.00;55.10;;;;;;5052593;28;20638;-73
2022/06/13 01:29:35;;;;;;;2.65;1.98;;;21.00;55.10;;;;;;5051986;28;20181;-73
2022/06/13 01:32:17;;;;;;;2.33;2.00;;;21.00;55.10;;;;;;5052845;28;20537;-73
2022/06/13 01:35:06;;;;;;;2.05;1.80;;;21.00;55.20;;;;;;5051093;28;20646;-73
2022/06/13 01:38:14;;;;;;;1.83;1.60;;;21.00;55.20;;;;;;5052044;28;20179;-72
2022/06/13 01:41:01;;;;;;;2.70;2.10;;;21.00;55.20;;;;;;5050187;28;20202;-72
2022/06/13 01:43:47;;;;;;;3.35;2.20;;;21.00;55.30;;;;;;5051692;28;20275;-72
2022/06/13 01:46:34;;;;;;;3.10;2.35;;;21.00;55.30;;;;;;5052250;28;20188;-73
2022/06/13 01:49:20;;;;;;;2.15;1.95;;;20.90;55.20;;;;;;5052484;28;20194;-73
2022/06/13 01:52:16;;;;;;;2.38;1.70;;;20.90;55.30;;;;;;5052061;28;20256;-73
2022/06/13 01:54:51;;;;;;;2.42;2.00;;;20.90;55.30;;;;;;5051765;28;20179;-74
2022/06/13 01:57:35;;;;;;;2.30;1.80;;;20.90;55.30;;;;;;5051545;28;20269;-71
2022/06/13 02:00:07;;;;;;;2.30;1.70;;;20.90;55.30;;;;;;5053200;28;20224;-71
2022/06/13 02:02:56;;;;;;;2.47;2.22;;;20.90;55.30;;;;;;5052945;28;20696;-71
2022/06/13 02:05:24;;;;;;;4.18;2.67;;;20.90;55.30;;;;;;5051354;28;20175;-72
2022/06/13 02:07:53;;;;;;;2.47;2.00;;;20.90;55.30;;;;;;5051535;28;20171;-72
2022/06/13 02:10:20;;;;;;;2.05;1.77;;;20.90;55.40;;;;;;5051374;28;20179;-73
2022/06/13 02:12:51;;;;;;;2.75;1.90;;;20.90;55.40;;;;;;5051484;28;20618;-73
2022/06/13 02:15:21;;;;;;;2.70;1.90;;;20.90;55.40;;;;;;5051687;28;20179;-73
2022/06/13 02:17:50;;;;;;;2.40;1.98;;;20.90;55.40;;;;;;5050626;28;20236;-73
2022/06/13 02:20:21;;;;;;;2.22;2.03;;;20.90;55.40;;;;;;5051512;28;20199;-73
2022/06/13 02:22:55;;;;;;;2.22;1.90;;;20.90;55.50;;;;;;5051808;28;20258;-72
2022/06/13 02:25:43;;;;;;;2.85;2.22;;;20.80;55.50;;;;;;5051940;28;20178;-73
2022/06/13 02:28:27;;;;;;;2.28;1.70;;;20.80;55.50;;;;;;5052769;28;20165;-73
2022/06/13 02:31:09;;;;;;;2.03;1.83;;;20.80;55.50;;;;;;5052363;28;20175;-73
2022/06/13 02:33:37;;;;;;;2.97;1.98;;;20.80;55.50;;;;;;5051829;28;20182;-73
2022/06/13 02:36:10;;;;;;;2.53;1.85;;;20.80;55.50;;;;;;5052249;28;20183;-73
2022/06/13 02:38:48;;;;;;;2.53;2.33;;;20.80;55.50;;;;;;5051514;28;20214;-73
2022/06/13 02:41:17;;;;;;;2.22;1.88;;;20.80;55.60;;;;;;5052508;28;20229;-73
2022/06/13 02:44:11;;;;;;;2.50;1.92;;;20.80;55.60;;;;;;5053219;28;20211;-74
2022/06/13 02:46:41;;;;;;;2.72;2.17;;;20.80;55.70;;;;;;5049846;28;20205;-73
2022/06/13 02:49:26;;;;;;;2.72;2.17;;;20.80;55.60;;;;;;5053577;28;20202;-74
2022/06/13 02:52:04;;;;;;;2.33;1.83;;;20.80;55.60;;;;;;5052160;28;20194;-73
2022/06/13 02:54:35;;;;;;;2.10;2.00;;;20.80;55.70;;;;;;5051402;28;20190;-74
2022/06/13 02:57:31;;;;;;;2.28;2.05;;;20.80;55.70;;;;;;5051967;28;20273;-72
2022/06/13 03:00:23;;;;;;;1.80;1.70;;;20.80;55.70;;;;;;5052108;28;20689;-71
2022/06/13 03:03:16;;;;;;;1.60;1.50;;;20.80;55.80;;;;;;5051601;28;20222;-71
2022/06/13 03:05:53;;;;;;;2.20;1.98;;;20.80;55.70;;;;;;5053040;28;20202;-73
2022/06/13 03:08:28;;;;;;;2.08;1.95;;;20.80;55.70;;;;;;5052472;28;20178;-72
2022/06/13 03:10:56;;;;;;;2.45;1.90;;;20.80;55.80;;;;;;5052682;28;20213;-73
2022/06/13 03:13:36;;;;;;;2.03;1.73;;;20.80;55.80;;;;;;5053139;28;20171;-73
2022/06/13 03:16:24;;;;;;;2.20;2.00;;;20.70;55.70;;;;;;5052928;28;20175;-73
2022/06/13 03:18:54;;;;;;;2.50;1.90;;;20.70;55.80;;;;;;5051566;28;20253;-73
2022/06/13 03:21:36;;;;;;;2.20;2.00;;;20.70;55.80;;;;;;5051197;28;20170;-73
2022/06/13 03:24:31;;;;;;;1.73;1.63;;;20.70;55.80;;;;;;5051545;28;20183;-73
2022/06/13 03:27:13;;;;;;;1.85;1.65;;;20.70;55.90;;;;;;5047474;28;20175;-73
2022/06/13 03:29:44;;;;;;;1.70;1.60;;;20.70;55.90;;;;;;5050734;28;20545;-73
2022/06/13 03:32:19;;;;;;;1.95;1.83;;;20.70;55.90;;;;;;5051572;28;20503;-73
2022/06/13 03:34:48;;;;;;;3.13;2.00;;;20.70;55.90;;;;;;5050766;28;20237;-73
2022/06/13 03:37:32;;;;;;;2.30;1.98;;;20.70;55.90;;;;;;5051865;28;20274;-72
2022/06/13 03:40:11;;;;;;;2.88;2.13;;;20.70;55.90;;;;;;5051002;28;20682;-73
2022/06/13 03:43:03;;;;;;;1.85;1.73;;;20.70;56.00;;;;;;5050802;28;20183;-73
2022/06/13 03:45:31;;;;;;;2.22;1.70;;;20.70;56.00;;;;;;5051369;28;20642;-73
2022/06/13 03:48:17;;;;;;;1.77;1.67;;;20.70;56.00;;;;;;5050899;28;20550;-73
2022/06/13 03:50:48;;;;;;;1.73;1.50;;;20.70;56.00;;;;;;5050472;28;20175;-73
2022/06/13 03:53:20;;;;;;;2.40;2.20;;;20.70;56.00;;;;;;5051347;28;20179;-73
2022/06/13 03:56:07;;;;;;;2.00;1.90;;;20.60;56.00;;;;;;5051143;28;20175;-73
2022/06/13 03:58:42;;;;;;;2.17;1.98;;;20.60;56.00;;;;;;5055140;28;20206;-72
2022/06/13 04:01:22;;;;;;;2.35;2.00;;;20.70;56.10;;;;;;5055408;28;20186;-72
2022/06/13 04:03:48;;;;;;;2.58;2.00;;;20.60;56.00;;;;;;5054002;28;20261;-72
2022/06/13 04:06:37;;;;;;;2.38;2.17;;;20.60;56.10;;;;;;5056651;28;20198;-71
2022/06/13 04:09:08;;;;;;;2.88;2.10;;;20.60;56.10;;;;;;5056330;28;20261;-72
2022/06/13 04:11:59;;;;;;;1.83;1.73;;;20.60;56.10;;;;;;5054480;28;20181;-72
2022/06/13 04:14:24;;;;;;;2.63;2.28;;;20.60;56.10;;;;;;5056376;28;20179;-73
2022/06/13 04:17:04;;;;;;;2.88;1.98;;;20.60;56.10;;;;;;5056089;28;20173;-72
2022/06/13 04:19:50;;;;;;;2.05;1.85;;;20.60;56.70;;;;;;5055116;28;20217;-73
2022/06/13 04:22:46;;;;;;;2.92;2.28;;;20.60;56.10;;;;;;5056040;28;20251;-72
2022/06/13 04:25:39;;;;;;;2.70;2.17;;;20.60;56.20;;;;;;5055457;28;20175;-72
2022/06/13 04:28:24;;;;;;;2.45;1.90;;;20.60;56.80;;;;;;5054698;28;20624;-72
2022/06/13 04:30:50;;;;;;;2.08;1.77;;;20.60;56.20;;;;;;5054611;28;20253;-72
2022/06/13 04:33:36;;;;;;;3.03;2.30;;;20.60;56.20;;;;;;5054238;28;20175;-71
2022/06/13 04:36:03;;;;;;;2.00;1.90;;;20.60;56.20;;;;;;5055918;28;20171;-71
2022/06/13 04:38:29;;;;;;;2.17;1.95;;;20.50;56.20;;;;;;5053897;28;20725;-72
2022/06/13 04:40:56;;;;;;;2.13;1.90;;;20.60;56.30;;;;;;5054187;28;20258;-72
2022/06/13 04:43:23;;;;;;;1.80;1.70;;;20.50;56.20;;;;;;5054527;28;20202;-72
2022/06/13 04:46:09;;;;;;;2.28;1.95;;;20.60;56.30;;;;;;5053685;28;20171;-73
2022/06/13 04:48:40;;;;;;;2.65;2.25;;;20.50;56.30;;;;;;5054274;28;20693;-73
2022/06/13 04:51:08;;;;;;;2.55;1.80;;;20.50;56.30;;;;;;5054428;28;20610;-71
2022/06/13 04:53:57;;;;;;;2.83;2.05;;;20.60;56.30;;;;;;5053689;28;20265;-73
2022/06/13 04:56:23;;;;;;;2.25;1.95;;;20.50;56.30;;;;;;5052438;28;20179;-72
2022/06/13 04:58:49;;;;;;;2.10;2.00;;;20.50;56.30;;;;;;5054063;28;20237;-72
2022/06/13 05:01:34;;;;;;;1.92;1.73;;;20.50;56.30;;;;;;5053617;28;20179;-70
2022/06/13 05:04:02;;;;;;;2.22;2.03;;;20.60;56.40;;;;;;5053892;28;20233;-71
2022/06/13 05:06:34;;;;;;;3.00;2.20;;;20.50;56.30;;;;;;5053579;28;20186;-70
2022/06/13 05:09:03;;;;;;;2.38;1.92;;;20.50;56.30;;;;;;5054990;28;20215;-71
2022/06/13 05:11:32;;;;;;;3.53;2.70;;;20.60;56.30;;;;;;5055333;28;20186;-72
2022/06/13 05:14:04;;;;;;;2.65;2.20;;;20.60;56.30;;;;;;5053021;28;20175;-72
2022/06/13 05:16:55;;;;;;;2.28;1.83;;;20.60;56.30;;;;;;5055074;28;20179;-73
2022/06/13 05:19:37;;;;;;;2.25;1.80;;;20.60;56.30;;;;;;5054039;28;20217;-73
2022/06/13 05:22:21;;;;;;;2.60;1.92;;;20.60;56.30;;;;;;5053269;28;20175;-72
2022/06/13 05:24:57;;;;;;;2.15;2.00;;;20.60;56.30;;;;;;5053620;28;20263;-72
2022/06/13 05:27:22;;;;;;;3.67;2.38;;;20.60;56.30;;;;;;5052942;28;20596;-71
2022/06/13 05:29:48;;;;;;;2.38;2.05;;;20.60;56.30;;;;;;5054684;28;20270;-72
2022/06/13 05:32:13;;;;;;;2.47;2.20;;;20.60;56.30;;;;;;5054954;28;20572;-72
2022/06/13 05:34:40;;;;;;;2.55;2.25;;;20.60;56.30;;;;;;5053649;28;20177;-72
2022/06/13 05:37:06;;;;;;;3.40;2.60;;;20.60;56.30;;;;;;5053404;28;20175;-70
2022/06/13 05:39:31;;;;;;;2.08;1.95;;;20.60;56.30;;;;;;5053402;28;20210;-72
2022/06/13 05:41:57;;;;;;;2.50;1.92;;;20.60;56.30;;;;;;5052397;28;20262;-72
2022/06/13 05:44:22;;;;;;;2.05;1.85;;;20.60;56.40;;;;;;5054697;28;20186;-72
2022/06/13 05:46:49;;;;;;;2.30;2.08;;;20.60;56.40;;;;;;5054283;28;20168;-72
2022/06/13 05:49:17;;;;;;;2.33;2.00;;;20.60;56.40;;;;;;5052810;28;20269;-72
2022/06/13 05:51:42;;;;;;;2.63;2.28;;;20.60;56.50;;;;;;5054192;28;20176;-73
2022/06/13 05:54:11;;;;;;;2.17;1.98;;;20.60;56.50;;;;;;5054300;28;20183;-73
2022/06/13 05:56:37;;;;;;;3.55;2.03;;;20.60;56.50;;;;;;5053600;28;20211;-71
2022/06/13 05:59:03;;;;;;;2.65;2.15;;;20.60;56.50;;;;;;5053125;28;20214;-71
2022/06/13 06:01:28;;;;;;;2.78;2.22;;;20.70;56.60;;;;;;5054362;28;20180;-70
2022/06/13 06:03:54;;;;;;;3.35;2.38;;;20.60;56.60;;;;;;5053138;28;20603;-70
2022/06/13 06:06:21;;;;;;;2.20;2.00;;;20.60;57.20;;;;;;5054190;28;20172;-70
2022/06/13 06:08:47;;;;;;;3.17;2.40;;;20.60;56.60;;;;;;5052665;28;20205;-71
2022/06/13 06:11:13;;;;;;;2.53;2.20;;;20.60;56.60;;;;;;5052355;28;20199;-72
2022/06/13 06:13:38;;;;;;;2.53;2.15;;;20.60;56.70;;;;;;5053737;28;20254;-71
2022/06/13 06:16:04;;;;;;;2.47;1.77;;;20.60;56.70;;;;;;5054027;28;20175;-72
2022/06/13 06:18:30;;;;;;;1.88;1.70;;;20.60;56.60;;;;;;5053111;28;20212;-72
2022/06/13 06:20:56;;;;;;;3.53;2.10;;;20.70;56.60;;;;;;5053116;28;20262;-71
2022/06/13 06:23:21;;;;;;;2.50;2.20;;;20.70;56.70;;;;;;5053828;28;20198;-71
2022/06/13 06:25:50;;;;;;;2.55;2.35;;;20.70;56.70;;;;;;5052915;28;20211;-74
2022/06/13 06:28:17;;;;;;;2.33;1.88;;;20.70;56.70;;;;;;5053888;28;20175;-69
2022/06/13 06:30:43;;;;;;;7.53;2.72;;;20.70;56.80;;;;;;5052951;28;20185;-68
2022/06/13 06:33:09;;;;;;;5.90;2.40;;;20.70;56.80;;;;;;5053699;28;20183;-72
2022/06/13 06:35:34;;;;;;;6.80;2.80;;;20.80;56.90;;;;;;5053637;28;20665;-73
2022/06/13 06:38:00;;;;;;;6.25;2.95;;;20.80;56.90;;;;;;5052788;28;20320;-73
2022/06/13 06:40:26;;;;;;;6.68;2.97;;;20.80;56.30;;;;;;5053855;28;20258;-73
2022/06/13 06:42:51;;;;;;;6.45;2.83;;;20.80;56.70;;;;;;5053360;28;20228;-73
2022/06/13 06:45:17;;;;;;;4.63;3.00;;;20.80;56.70;;;;;;5052891;28;20652;-73
2022/06/13 06:47:43;;;;;;;4.50;2.55;;;20.80;56.70;;;;;;5053146;28;20645;-74
2022/06/13 06:50:13;;;;;;;6.25;3.10;;;20.80;56.80;;;;;;5053324;28;20178;-72
2022/06/13 06:52:39;;;;;;;8.88;3.35;;;20.80;56.90;;;;;;5052420;28;20198;-71
2022/06/13 07:00:35;;;;;;;5.45;2.55;;;20.80;56.70;;;;;;5052584;28;20224;-69
2022/06/13 07:03:01;;;;;;;9.10;3.30;;;20.80;56.60;;;;;;5053003;28;20641;-69
2022/06/13 07:05:26;;;;;;;4.45;2.65;;;20.80;56.60;;;;;;5053271;28;20672;-70
2022/06/13 07:07:52;;;;;;;5.38;2.90;;;20.80;56.60;;;;;;5052033;28;20176;-71
2022/06/13 07:10:19;;;;;;;5.47;2.50;;;20.80;56.60;;;;;;5052904;28;20623;-70
2022/06/13 07:12:45;;;;;;;5.53;2.63;;;20.80;56.50;;;;;;5052243;28;20174;-69
2022/06/13 07:15:12;;;;;;;8.43;2.97;;;20.80;56.50;;;;;;5052833;28;20167;-69
2022/06/13 07:17:38;;;;;;;5.78;2.38;;;20.80;56.40;;;;;;5051478;28;20179;-70
2022/06/13 07:20:03;;;;;;;3.78;2.67;;;20.80;56.50;;;;;;5051979;28;20207;-70
2022/06/13 07:22:30;;;;;;;5.22;2.40;;;20.80;56.40;;;;;;5051501;28;20178;-69
2022/06/13 07:24:55;;;;;;;6.97;2.60;;;20.80;56.50;;;;;;5052465;28;20189;-69
2022/06/13 07:27:21;;;;;;;5.20;2.58;;;20.80;56.40;;;;;;5052287;28;20258;-70
2022/06/13 07:29:47;;;;;;;5.10;2.75;;;20.90;56.50;;;;;;5052481;28;20171;-70
2022/06/13 07:32:15;;;;;;;3.97;2.38;;;20.80;56.40;;;;;;5051843;28;20171;-70
2022/06/13 07:34:41;;;;;;;4.93;2.80;;;20.90;56.40;;;;;;5051701;28;20622;-70
2022/06/13 07:37:09;;;;;;;3.35;2.30;;;20.90;56.40;;;;;;5052801;28;20167;-69
2022/06/13 07:39:34;;;;;;;4.90;2.40;;;20.90;56.30;;;;;;5051439;28;20211;-70
2022/06/13 07:42:00;;;;;;;6.93;2.70;;;20.90;56.30;;;;;;5051937;28;20650;-71
2022/06/13 07:44:38;;;;;;;4.47;2.53;;;20.90;57.10;;;;;;5051318;28;20185;-70
2022/06/13 07:47:04;;;;;;;4.22;2.17;;;20.90;56.40;;;;;;5051529;28;20182;-70
2022/06/13 07:49:29;;;;;;;4.18;2.50;;;20.90;56.30;;;;;;5050889;28;20170;-72
2022/06/13 07:51:56;;;;;;;5.82;2.45;;;20.90;56.30;;;;;;5052376;28;20660;-72
2022/06/13 07:54:22;;;;;;;3.85;2.38;;;21.00;56.40;;;;;;5052676;28;20549;-71
2022/06/13 07:56:48;;;;;;;4.47;2.40;;;21.00;56.30;;;;;;5051431;28;20178;-70
2022/06/13 07:59:19;;;;;;;4.10;2.42;;;21.00;56.30;;;;;;5052424;28;20218;-69
2022/06/13 08:01:45;;;;;;;2.75;2.00;;;21.00;56.30;;;;;;5052246;28;20191;-69
2022/06/13 08:04:11;;;;;;;3.22;2.55;;;21.00;56.40;;;;;;5051583;28;20218;-70
2022/06/13 08:06:41;;;;;;;5.78;2.65;;;21.10;56.20;;;;;;5052273;28;20228;-70
2022/06/13 08:09:07;;;;;;;3.40;2.15;;;21.00;56.20;;;;;;5051598;28;20206;-69
2022/06/13 08:11:34;;;;;;;3.47;2.30;;;21.00;56.30;;;;;;5052263;28;20699;-70
2022/06/13 08:14:00;;;;;;;4.00;2.00;;;20.90;56.30;;;;;;5051210;28;20179;-70
2022/06/13 08:16:26;;;;;;;5.18;1.98;;;21.00;56.40;;;;;;5051792;28;20191;-70
2022/06/13 08:18:52;;;;;;;3.55;2.30;;;20.90;56.30;;;;;;5052109;28;20222;-70
2022/06/13 08:21:17;;;;;;;4.05;2.38;;;20.90;56.40;;;;;;5052158;28;20179;-70
2022/06/13 08:23:43;;;;;;;4.05;2.30;;;20.90;56.40;;;;;;5051293;28;20167;-70
2022/06/13 08:26:09;;;;;;;5.53;2.33;;;20.90;56.30;;;;;;5052201;28;20176;-70
2022/06/13 08:28:35;;;;;;;4.25;2.47;;;20.90;56.30;;;;;;5052250;28;20197;-70
2022/06/13 08:31:06;;;;;;;5.15;2.78;;;20.80;56.30;;;;;;5051500;28;20217;-70
2022/06/13 08:33:32;;;;;;;2.45;1.77;;;20.80;56.30;;;;;;5050980;28;20179;-69
2022/06/13 08:35:58;;;;;;;5.50;2.28;;;20.80;56.30;;;;;;5051992;28;20486;-70
2022/06/13 08:38:23;;;;;;;2.92;2.47;;;20.80;56.30;;;;;;5051261;28;20178;-69
2022/06/13 08:40:52;;;;;;;5.72;2.30;;;20.80;56.30;;;;;;5051511;28;20176;-69
2022/06/13 08:43:37;;;;;;;3.50;1.80;;;20.90;56.10;;;;;;5053492;28;20175;-70
2022/06/13 08:46:26;;;;;;;3.00;2.17;;;21.00;56.00;;;;;;5054038;28;20177;-71
2022/06/13 08:49:02;;;;;;;2.78;1.90;;;21.00;56.00;;;;;;5054212;28;20182;-71
2022/06/13 08:51:45;;;;;;;3.35;1.98;;;20.90;56.00;;;;;;5053900;28;20186;-72
2022/06/13 08:54:11;;;;;;;3.08;2.00;;;20.90;56.20;;;;;;5054535;28;20645;-71
2022/06/13 08:56:36;;;;;;;4.03;2.17;;;20.80;56.20;;;;;;5054039;28;20183;-70
2022/06/13 08:59:27;;;;;;;4.00;1.90;;;20.80;56.10;;;;;;5054482;28;20217;-69
2022/06/13 09:02:02;;;;;;;3.92;1.95;;;20.80;56.10;;;;;;5054843;28;20626;-68
2022/06/13 09:04:40;;;;;;;2.45;1.70;;;20.80;56.10;;;;;;5054061;28;20223;-69
2022/06/13 09:07:10;;;;;;;2.05;1.50;;;20.90;56.00;;;;;;5053394;28;20172;-69
2022/06/13 09:09:54;;;;;;;2.20;1.40;;;21.00;55.90;;;;;;5055134;28;20186;-71
2022/06/13 09:12:44;;;;;;;3.05;1.67;;;21.00;55.80;;;;;;5053303;28;20545;-69
2022/06/13 09:15:15;;;;;;;2.90;1.58;;;21.00;55.80;;;;;;5055317;28;20171;-70
2022/06/13 09:17:59;;;;;;;3.38;1.52;;;21.10;55.70;;;;;;5053639;28;20187;-70
2022/06/13 09:20:48;;;;;;;3.20;1.65;;;21.10;55.60;;;;;;5053077;28;20214;-70
2022/06/13 09:23:29;;;;;;;3.20;1.77;;;21.20;55.60;;;;;;5053817;28;20182;-71
2022/06/13 09:26:25;;;;;;;1.88;1.52;;;21.20;55.50;;;;;;5053669;28;20241;-69
2022/06/13 09:28:55;;;;;;;2.67;1.85;;;21.10;55.60;;;;;;5053363;28;20262;-70
2022/06/13 09:31:34;;;;;;;2.45;1.75;;;21.10;55.70;;;;;;5053777;28;20527;-70
2022/06/13 09:34:09;;;;;;;2.22;1.58;;;21.00;55.70;;;;;;5054148;28;20250;-70
2022/06/13 09:36:36;;;;;;;3.00;1.67;;;21.00;55.90;;;;;;5053344;28;20186;-70
2022/06/13 09:39:07;;;;;;;1.85;1.50;;;21.00;55.90;;;;;;5054562;28;20214;-69
2022/06/13 09:41:41;;;;;;;1.50;1.20;;;21.20;55.70;;;;;;5054091;28;20182;-69
2022/06/13 09:44:33;;;;;;;4.05;1.58;;;21.20;55.40;;;;;;5053374;28;20182;-70
2022/06/13 09:47:09;;;;;;;2.58;1.40;;;21.20;55.30;;;;;;5053051;28;20179;-70
2022/06/13 09:49:52;;;;;;;2.75;1.27;;;21.10;55.40;;;;;;5052435;28;20593;-71
2022/06/13 09:52:54;;;;;;;2.13;1.13;;;21.00;55.60;;;;;;5053292;28;20180;-71
2022/06/13 09:55:35;;;;;;;1.67;1.33;;;21.00;55.70;;;;;;5051889;28;20221;-69
2022/06/13 09:58:16;;;;;;;2.75;1.25;;;21.00;55.80;;;;;;5053245;28;20554;-70
2022/06/13 10:01:01;;;;;;;1.63;1.20;;;21.00;55.80;;;;;;5052807;28;20202;-69
2022/06/13 10:03:41;;;;;;;2.58;1.40;;;21.10;55.60;;;;;;5053203;28;20227;-69
2022/06/13 10:06:25;;;;;;;2.50;1.20;;;21.20;55.40;;;;;;5054201;28;20175;-69
2022/06/13 10:08:54;;;;;;;2.95;1.42;;;21.30;55.20;;;;;;5051956;28;20285;-70
2022/06/13 10:11:53;;;;;;;1.38;1.08;;;21.30;55.00;;;;;;5054158;28;20217;-69
2022/06/13 10:14:33;;;;;;;2.42;1.15;;;21.30;55.00;;;;;;5054029;28;20232;-70
2022/06/13 10:17:21;;;;;;;1.77;1.02;;;21.30;55.00;;;;;;5053133;28;20209;-69
2022/06/13 10:20:15;;;;;;;1.75;1.00;;;21.20;55.30;;;;;;5052561;28;20211;-69
2022/06/13 10:23:01;;;;;;;2.40;1.10;;;21.10;55.30;;;;;;5052829;28;20588;-69
2022/06/13 10:25:49;;;;;;;1.58;1.15;;;21.00;55.40;;;;;;5052620;28;20656;-69
2022/06/13 10:28:39;;;;;;;2.15;1.33;;;21.00;55.50;;;;;;5052649;28;20186;-69
2022/06/13 10:31:04;;;;;;;3.22;1.20;;;21.10;55.30;;;;;;5051575;28;20228;-69
2022/06/13 10:33:51;;;;;;;3.50;1.15;;;21.20;54.60;;;;;;5053524;28;20171;-69
2022/06/13 10:36:23;;;;;;;1.63;0.90;;;21.30;53.70;;;;;;5052681;28;20194;-68
2022/06/13 10:39:05;;;;;;;1.98;1.08;;;21.30;53.40;;;;;;5052445;28;20203;-70
2022/06/13 10:41:30;;;;;;;3.78;1.25;;;21.30;53.30;;;;;;5052289;28;20189;-68
2022/06/13 10:43:56;;;;;;;4.45;1.10;;;21.40;53.20;;;;;;5051203;28;20175;-71
2022/06/13 10:46:22;;;;;;;3.38;1.20;;;21.50;53.20;;;;;;5052126;28;20608;-72
2022/06/13 10:48:53;;;;;;;2.63;1.00;;;21.40;53.30;;;;;;5051784;28;20204;-73
2022/06/13 10:51:19;;;;;;;3.40;1.00;;;21.40;53.40;;;;;;5051564;28;20214;-72
2022/06/13 10:53:47;;;;;;;2.13;1.02;;;21.40;53.80;;;;;;5053152;28;20218;-71
2022/06/13 10:56:35;;;;;;;2.22;1.25;;;21.30;53.70;;;;;;5051850;28;20580;-71
2022/06/13 10:59:01;;;;;;;3.40;1.00;;;21.30;53.90;;;;;;5051315;28;20209;-70
2022/06/13 11:01:30;;;;;;;2.58;1.20;;;21.40;53.80;;;;;;5053178;28;20171;-70
2022/06/13 11:04:08;;;;;;;2.00;0.90;;;21.50;53.70;;;;;;5051599;28;20246;-70
2022/06/13 11:06:42;;;;;;;2.95;1.30;;;21.50;53.60;;;;;;5050998;28;20177;-71
2022/06/13 11:09:21;;;;;;;4.47;1.23;;;21.50;53.60;;;;;;5051670;28;20707;-72
2022/06/13 11:11:47;;;;;;;8.73;1.13;;;21.40;53.90;;;;;;5051601;28;20167;-70
2022/06/13 11:22:37;;;;;;;3.00;1.10;;;21.40;54.10;;;;;;5052420;28;20182;-70
2022/06/13 11:22:59;;;;;;;1.70;0.90;;;21.50;54.10;;;;;;5051573;28;20174;-70
2022/06/13 11:25:32;;;;;;;3.83;0.98;;;21.40;54.20;;;;;;5051605;28;20186;-70
2022/06/13 11:28:12;;;;;;;5.47;1.60;;;21.30;54.30;;;;;;5050786;28;20179;-71
2022/06/13 11:30:48;;;;;;;3.50;1.25;;;21.30;54.40;;;;;;5051460;28;20178;-71
2022/06/13 11:33:17;;;;;;;4.75;1.10;;;21.30;54.60;;;;;;5051976;28;20649;-70
2022/06/13 11:35:50;;;;;;;2.70;1.20;;;21.30;54.60;;;;;;5052473;28;20179;-68
2022/06/13 11:38:22;;;;;;;3.00;0.90;;;21.40;54.50;;;;;;5052917;28;20254;-69
2022/06/13 11:41:14;;;;;;;3.40;1.88;;;21.50;54.20;;;;;;5051440;28;20265;-69
2022/06/13 11:43:42;;;;;;;2.55;1.00;;;21.50;54.30;;;;;;5051289;28;20312;-70
2022/06/13 11:46:23;;;;;;;2.00;1.02;;;21.50;54.10;;;;;;5052276;28;20708;-70
2022/06/13 11:48:49;;;;;;;1.90;1.17;;;21.40;54.10;;;;;;5051662;28;20175;-70
2022/06/13 11:51:25;;;;;;;3.67;1.17;;;21.40;54.10;;;;;;5051253;28;20175;-71
2022/06/13 11:53:52;;;;;;;3.95;1.27;;;21.40;54.10;;;;;;5050974;28;20194;-71
2022/06/13 11:56:28;;;;;;;2.53;1.20;;;21.30;54.30;;;;;;5050618;28;20171;-70
2022/06/13 11:58:55;;;;;;;5.35;1.30;;;21.40;54.10;;;;;;5052046;28;20205;-69
2022/06/13 12:01:23;;;;;;;2.85;1.23;;;21.50;54.00;;;;;;5050560;28;20661;-69
2022/06/13 12:04:03;;;;;;;2.15;0.80;;;21.50;53.90;;;;;;5052130;28;20226;-68
2022/06/13 12:06:42;;;;;;;1.58;0.90;;;21.60;53.90;;;;;;5052529;28;20173;-69
2022/06/13 12:09:20;;;;;;;2.30;1.20;;;21.60;53.60;;;;;;5051706;28;20201;-68
2022/06/13 12:12:00;;;;;;;2.35;1.33;;;21.60;53.70;;;;;;5051219;28;20281;-69
2022/06/13 12:14:26;;;;;;;1.42;1.13;;;21.50;53.60;;;;;;5052493;28;20261;-71
2022/06/13 12:17:00;;;;;;;4.18;1.40;;;21.40;53.60;;;;;;5051313;28;20286;-71
2022/06/13 12:19:31;;;;;;;2.50;1.17;;;21.50;53.50;;;;;;5054336;28;20214;-71
2022/06/13 12:22:03;;;;;;;3.30;1.23;;;21.50;53.70;;;;;;5056022;28;20171;-70
2022/06/13 12:24:47;;;;;;;3.92;1.42;;;21.40;53.80;;;;;;5054353;28;20175;-70
2022/06/13 12:27:28;;;;;;;3.90;1.45;;;21.50;53.60;;;;;;5056067;28;20167;-70
2022/06/13 12:30:03;;;;;;;1.20;0.90;;;21.60;53.50;;;;;;5053882;28;20175;-72
2022/06/13 12:32:31;;;;;;;3.22;1.23;;;21.70;53.60;;;;;;5054878;28;20178;-68
2022/06/13 12:35:15;;;;;;;2.50;1.27;;;21.80;53.70;;;;;;5054673;28;20171;-71
2022/06/13 12:38:19;;;;;;;2.33;1.13;;;21.80;53.60;;;;;;5053920;28;20189;-69
2022/06/13 12:41:10;;;;;;;3.60;1.10;;;21.90;53.50;;;;;;5044261;28;20198;-69
2022/06/13 12:43:58;;;;;;;4.10;1.10;;;21.90;53.30;;;;;;5053702;28;20183;-68
2022/06/13 12:46:36;;;;;;;3.08;0.98;;;22.00;53.10;;;;;;5054482;28;20182;-69
2022/06/13 12:49:15;;;;;;;2.47;1.02;;;21.80;53.20;;;;;;5055502;28;20519;-70
2022/06/13 12:52:00;;;;;;;3.17;1.13;;;21.90;53.20;;;;;;5053559;28;20266;-69
2022/06/13 12:54:59;;;;;;;3.10;1.02;;;21.90;53.10;;;;;;5054473;28;20267;-69
2022/06/13 12:57:50;;;;;;;3.47;1.02;;;21.90;52.90;;;;;;5053820;28;20207;-68
2022/06/13 13:00:20;;;;;;;1.35;0.80;;;22.00;52.90;;;;;;5054347;28;20222;-68
2022/06/13 13:03:15;;;;;;;1.90;0.90;;;22.00;52.80;;;;;;5053801;28;20218;-68
2022/06/13 13:05:43;;;;;;;1.60;1.05;;;21.90;53.00;;;;;;5043910;28;20199;-69
2022/06/13 13:08:27;;;;;;;1.88;1.08;;;21.80;53.20;;;;;;5055471;28;20175;-69
2022/06/13 13:11:21;;;;;;;3.00;0.93;;;21.90;53.00;;;;;;5053892;28;20649;-69
2022/06/13 13:13:52;;;;;;;3.13;1.02;;;22.00;52.80;;;;;;5054182;28;20183;-69
2022/06/13 13:16:39;;;;;;;3.00;1.15;;;22.10;52.70;;;;;;5054233;28;20258;-70
2022/06/13 13:19:14;;;;;;;3.05;1.35;;;22.10;52.50;;;;;;5054531;28;20238;-69
2022/06/13 13:21:58;;;;;;;2.30;1.20;;;22.20;52.40;;;;;;5053771;28;20228;-69
2022/06/13 13:24:42;;;;;;;1.05;1.00;;;22.20;52.30;;;;;;5053807;28;20179;-70
2022/06/13 13:27:13;;;;;;;3.10;1.10;;;22.20;52.30;;;;;;5054405;28;20181;-69
2022/06/13 13:29:45;;;;;;;1.48;0.73;;;22.30;53.10;;;;;;5052236;28;20207;-69
2022/06/13 13:32:35;;;;;;;2.65;0.90;;;22.30;52.40;;;;;;5053763;28;20175;-68
2022/06/13 13:35:31;;;;;;;3.00;0.90;;;22.40;52.20;;;;;;5058848;28;20711;-68
2022/06/13 13:38:02;;;;;;;2.83;1.20;;;22.50;52.00;;;;;;5054908;28;20585;-68
2022/06/13 13:40:59;;;;;;;2.42;0.93;;;22.50;52.00;;;;;;5071122;28;20212;-68